Historyczne dane pomiarowe

Dodano dane terminowe – wersja testowa.

Dane z okresu 1951-2019

Wersja bazy: 1.34 [2019-03-16, lista zmian], aktualizacja planowana na 2019-04-15

Dane meteo z obszaru Polski uzyskane na podstawie danych udostępnionych przez Instytut Meteorologii i Gospodarki Wodnej – Państwowy Instytut Badawczy.

 

Wybierz Datę:    

       

TemperaturaWilgotnośćWiatrCiśnienieOpadyŚniegCzas trwania zjawisk
 Stacja t tx tn tng RH VA  wxwx mslp ppp RRR   cm mm wxwxwxwxwxwxwx
1961-08-14 11.3 19.0 5.6- 84.3- 5.0 0.3---- 0.0------------
1961-08-13 11.1 14.2 9.4- 94.0- 5.3 0.7---- 20.3------------
1961-08-12 17.5 25.3 13.6- 86.8- 6.7 0.3---- 26.0------------
1961-08-11 22.4 31.9 16.7- 76.0- 1.7 2.0---- 0.0------------
1961-08-10 23.4 32.7 16.5- 79.0- 0.3 0.7---- 0.0------------
1961-08-09 22.5 30.0 15.8- 79.8- 4.7 0.7---- 0.0------------
1961-08-08 20.0 26.9 16.5- 85.8- 5.3 0.7---- 0.0------------
1961-08-07 22.5 30.3 13.3- 74.8- 2.3 0.3---- 0.0------------
1961-08-06 21.0 29.7 11.5- 75.3- 0.0 1.0---- 0.0------------
1961-08-05 18.0 23.6 9.4- 77.5- 3.7 0.3---- 0.0------------
1961-08-04 15.4 21.1 9.3- 76.8- 4.7 0.7---- 0.0------------
1961-08-03 15.7 21.5 10.6- 82.0- 7.3 0.7---- 0.2------------
1961-08-02 17.2 25.6 7.0- 78.3- 2.3 0.7---- 0.0------------
1961-08-01 14.6 21.3 12.0- 79.3- 2.0 1.7---- 0.0------------
1961-07-31 12.7 15.1 9.9- 90.8- 8.0 1.0---- 12.3------------
1961-07-30 10.7 11.7 10.0- 95.8- 8.0 0.3---- 15.3------------
1961-07-29 12.0 18.4 11.2- 96.8- 8.0 0.7---- 18.4------------
1961-07-28 20.1 25.6 16.5- 74.5- 6.3 1.3---- 37.5------------
1961-07-27 21.1 26.1 10.8- 65.0- 3.7 2.7---- 0.0------------
1961-07-26 16.1 23.6 6.0- 66.8- 1.7 0.7---- 0.0------------
1961-07-25 11.7 15.5 7.2- 82.8- 7.3 0.3---- 0.0------------
1961-07-24 13.6 18.0 11.0- 81.5- 6.3 1.0---- 0.0------------
1961-07-23 16.7 23.1 11.1- 67.0- 2.0 0.3---- 0.0------------
1961-07-22 14.2 18.7 12.5- 87.5- 7.3 0.3---- 0.6------------
1961-07-21 14.5 18.3 9.1- 88.8- 6.3 1.3---- 1.6------------
1961-07-20 13.7 18.6 8.5- 84.0- 6.7 0.3---- 4.7------------
1961-07-19 14.2 19.0 9.8- 84.0- 6.3 0.0---- 15.8------------
1961-07-18 15.0 18.7 10.8- 73.0- 4.7 0.7---- 0.0------------
1961-07-17 15.2 21.9 12.0- 74.0- 3.7 1.3---- 0.3------------
1961-07-16 17.1 22.1 14.0- 74.3- 6.3 2.0---- 0.0------------
1961-07-15 18.4 24.6 12.2- 75.0- 6.7 1.3---- 12.6------------
1961-07-14 15.5 19.5 13.5- 71.0- 5.0 1.0---- 0.0------------
1961-07-13 19.7 28.1 12.5- 75.0- 3.3 1.3---- 12.9------------
1961-07-12 20.3 27.6 10.6- 74.0- 1.7 1.0---- 0.0------------
1961-07-11 15.1 21.5 7.7- 78.8- 2.3 0.7---- 0.0------------
1961-07-10 13.9 17.8 10.0- 81.3- 5.0 0.3---- 0.8------------
1961-07-09 12.3 21.3 6.2- 90.8- 5.7 0.3---- 2.7------------
1961-07-08 13.7 20.7 4.6- 76.8- 2.7 0.3---- 0.0------------
1961-07-07 11.9 16.6 7.8- 78.5- 3.7 0.3---- 0.0------------
1961-07-06 12.6 16.6 6.1- 76.0- 5.7 1.7---- 0.0------------
1961-07-05 13.5 18.6 11.2- 76.3- 5.0 0.7---- 0.0------------
1961-07-04 19.5 29.5 13.3- 82.3- 4.7 1.0---- 24.2------------
1961-07-03 21.3 30.9 10.8- 68.8- 0.0 0.0---- 0.0------------
1961-07-02 19.7 28.6 10.6- 72.8- 0.3 0.3---- 0.0------------
1961-07-01 19.2 27.3 9.1- 74.3- 0.3 0.3---- 0.0------------
1961-06-30 16.7 24.1 8.6- 77.0- 0.0 0.3---- 0.0------------
1961-06-29 15.1 20.7 6.6- 75.0- 3.3 0.3---- 0.0------------
1961-06-28 12.8 18.2 11.7- 85.3- 6.7 1.7---- 2.7------------
1961-06-27 21.4 31.2 12.5- 73.0- 1.7 0.7---- 33.8------------
1961-06-26 20.5 30.2 12.9- 79.0- 5.3 0.7---- 3.8------------
1961-06-25 21.3 29.3 9.3- 69.3- 2.0 0.7---- 0.0------------
1961-06-24 18.8 25.0 10.0- 70.0- 1.3 1.3---- 0.0------------
1961-06-23 17.5 22.6 15.0- 84.0- 5.7 0.7---- 0.0------------
1961-06-22 19.4 27.5 5.5- 72.3- 4.7 0.3---- 3.7------------
1961-06-21 15.4 23.6 5.4- 75.3- 1.7 0.3---- 0.0------------
1961-06-20 14.9 20.6 12.0- 72.8- 2.3 0.3---- 0.0------------
1961-06-19 19.9 27.7 13.2- 73.0- 3.3 0.7---- 0.0------------
1961-06-18 19.5 26.1 6.5- 65.3- 1.0 0.7---- 0.0------------
1961-06-17 14.4 22.5 6.1- 75.5- 0.7 0.3---- 0.0------------
1961-06-16 12.9 19.5 7.1- 76.3- 1.7 0.7---- 0.0------------
520.5 ms

 

Źródłem pochodzenia danych jest Instytut Meteorologii i Gospodarki Wodnej – Państwowy Instytut Badawczy. Dane Instytutu Meteorologii i Gospodarki Wodnej – Państwowego Instytutu Badawczego zostały przetworzone.

Dane źródłowe można odnaleźć na stronie https://dane.imgw.pl